WetterOnline ( https://www.wetteronline.de )

Wetter aktuell Bad Hönningen

Aktuelles Wetter: Andernach (75m)

6-stündlich | Neueste Meldungen
Ortszeit Temperatur Wetter
Di, 17.05. 14:00 23.3° C bedeckt
Di, 17.05. 8:00 13.9° C bedeckt
Di, 17.05. 2:00 13.2° C Nebel
Mo, 16.05. 20:00 18.6° C bedeckt
Mo, 16.05. 14:00 24.5° C bewölkt
Mo, 16.05. 8:00 15.0° C bedeckt
Mo, 16.05. 2:00 13.0° C wolkenlos
So, 15.05. 20:00 24.1° C leicht bewölkt
Ortszeit Temperatur Wetter
Di, 17.05. 15:30 24.5° C bedeckt
Di, 17.05. 15:20 24.5° C bedeckt
Di, 17.05. 15:10 24.5° C bedeckt
Di, 17.05. 15:00 23.9° C bedeckt
Di, 17.05. 14:50 23.9° C bedeckt
Di, 17.05. 14:40 24.5° C bedeckt
Di, 17.05. 14:30 23.9° C wolkig
Di, 17.05. 14:00 23.3° C bedeckt
Di, 17.05. 13:30 22.9° C bedeckt
Di, 17.05. 13:00 22.1° C wolkig
Di, 17.05. 12:30 21.6° C bedeckt
Ortszeit Relative Feuchte Sichtweite
Di, 17.05. 14:00 50% >70 km
Di, 17.05. 8:00 93% 12 km
Di, 17.05. 2:00 100% 100 m
Mo, 16.05. 20:00 91% 19 km
Mo, 16.05. 14:00 63% 35 km
Mo, 16.05. 8:00 78% 30 km
Mo, 16.05. 2:00 80% 45 km
So, 15.05. 20:00 36% 40 km
Ortszeit Relative Feuchte Sichtweite
Di, 17.05. 15:30 49% >70 km
Di, 17.05. 15:20 49% -
Di, 17.05. 15:10 48% -
Di, 17.05. 15:00 47% 50 km
Di, 17.05. 14:50 47% -
Di, 17.05. 14:40 49% -
Di, 17.05. 14:30 53% 55 km
Di, 17.05. 14:00 50% >70 km
Di, 17.05. 13:30 52% 55 km
Di, 17.05. 13:00 56% 60 km
Di, 17.05. 12:30 65% 35 km
Ortszeit Niederschlagsmenge Niederschlagsart
Di, 17.05. 14:00 0.0 l/m2 in 6 Std. -
Di, 17.05. 8:00 0.1 l/m2 in 12 Std. -
Di, 17.05. 2:00 0.1 l/m2 in 6 Std. -
Mo, 16.05. 20:00 12 l/m2 in 12 Std. Regen
Mo, 16.05. 14:00 2 l/m2 in 6 Std. Regen, Niederschlag
Mo, 16.05. 8:00 0.1 l/m2 in 12 Std. Regen
Mo, 16.05. 2:00 0.0 l/m2 in 6 Std. -
So, 15.05. 20:00 0.0 l/m2 in 12 Std. -
Ortszeit Niederschlagsmenge Niederschlagsart
Di, 17.05. 15:30 0.0 l/m2 in 1 Std. -
Di, 17.05. 15:20 keine Meldung -
Di, 17.05. 15:10 keine Meldung -
Di, 17.05. 15:00 0.0 l/m2 in 1 Std. -
Di, 17.05. 14:50 keine Meldung -
Di, 17.05. 14:40 keine Meldung -
Di, 17.05. 14:30 0.0 l/m2 in 1 Std. -
Di, 17.05. 14:00 0.0 l/m2 in 1 Std. -
Di, 17.05. 13:30 0.0 l/m2 in 1 Std. -
Di, 17.05. 13:00 0.1 l/m2 in 1 Std. -
Di, 17.05. 12:30 0.0 l/m2 in 1 Std. -
Ortszeit Stärke Spitze Richtung
km/h Bft. km/h Grad Sektor
Di, 17.05. 14:00 7 2 13 80° O
Di, 17.05. 8:00 0 0 11 - -
Di, 17.05. 2:00 4 1 7 170° S
Mo, 16.05. 20:00 4 1 47 160° S
Mo, 16.05. 14:00 7 2 36 60° NO
Mo, 16.05. 8:00 4 1 14 210° SW
Mo, 16.05. 2:00 7 2 18 190° S
So, 15.05. 20:00 13 3 28 90° O
Ortszeit Stärke Spitze Richtung
km/h Bft. km/h Grad Sektor
Di, 17.05. 15:30 7 2 14 80° O
Di, 17.05. 15:20 7 2 - 80° O
Di, 17.05. 15:10 4 1 - 30° NO
Di, 17.05. 15:00 4 1 14 130° SO
Di, 17.05. 14:50 4 1 - 130° SO
Di, 17.05. 14:40 4 1 - 340° N
Di, 17.05. 14:30 7 2 14 100° O
Di, 17.05. 14:00 7 2 13 80° O
Di, 17.05. 13:30 4 1 11 90° O
Di, 17.05. 13:00 4 1 11 50° NO
Di, 17.05. 12:30 6 1 11 100° O
Ortszeit Untergrenze Bedeckung Gattung
total tief tief mittel hoch
Di, 17.05. 14:00 3000 m 8/8 8/8 - - -
Di, 17.05. 8:00 150 m 8/8 8/8 - - -
Di, 17.05. 2:00 <30 m 8/8 0/8 - - -
Mo, 16.05. 20:00 3300 m 8/8 8/8 - - -
Mo, 16.05. 14:00 1500 m 7/8 7/8 - - -
Mo, 16.05. 8:00 3300 m 8/8 8/8 - - -
Mo, 16.05. 2:00 - 0/8 0/8 - - -
So, 15.05. 20:00 6900 m 3/8 3/8 - - -
Ortszeit Bedeckungsgrad in Achtel und Wolkenuntergrenze
Di, 17.05. 15:30 8(3000m)
Di, 17.05. 15:20 8(3000m)
Di, 17.05. 15:10 8
Di, 17.05. 15:00 8(3000m)
Di, 17.05. 14:50 8(3000m)
Di, 17.05. 14:40 8
Di, 17.05. 14:30 6(3000m) 6(3600m)
Di, 17.05. 14:00 8(3000m) 8(3600m)
Di, 17.05. 13:30 8(3300m) 8(3900m)
Di, 17.05. 13:00 1(2100m) 8(3300m) 8(3900m)
Di, 17.05. 12:30 2(3000m) 8(3600m) 8(3900m)
Ortszeit Luftdruck NN (hPa) Tendenz (hPa in 3 Std.)
Di, 17.05. 14:00 1021 - 1,6
Di, 17.05. 8:00 1023 + 1,1
Di, 17.05. 2:00 1021 + 0,6
Mo, 16.05. 20:00 1019 + 0,8
Mo, 16.05. 14:00 1015 - 0,8
Mo, 16.05. 8:00 1015 + 0,2
Mo, 16.05. 2:00 1016 - 0,3
So, 15.05. 20:00 1015 - 1,5
Ortszeit Luftdruck NN (hPa) Tendenz (hPa in 3 Std.)
Di, 17.05. 15:30 1020 - 1,9
Di, 17.05. 15:20 1020 keine Meldung
Di, 17.05. 15:10 1020 keine Meldung
Di, 17.05. 15:00 1020 - 1,9
Di, 17.05. 14:50 1020 keine Meldung
Di, 17.05. 14:40 1020 keine Meldung
Di, 17.05. 14:30 1021 - 1,7
Di, 17.05. 14:00 1021 - 1,6
Di, 17.05. 13:30 1021 - 0,9
Di, 17.05. 13:00 1022 - 0,6
Di, 17.05. 12:30 1022 - 0,3
Ortszeit Schneehöhe (cm)
Di, 17.05. 14:00 0
Di, 17.05. 8:00 0
Di, 17.05. 2:00 0
Mo, 16.05. 20:00 0
Mo, 16.05. 14:00 0
Mo, 16.05. 8:00 0
Mo, 16.05. 2:00 0
So, 15.05. 20:00 0
Ortszeit Schneehöhe (cm)
Di, 17.05. 15:30 0
Di, 17.05. 15:20 0
Di, 17.05. 15:10 0
Di, 17.05. 15:00 0
Di, 17.05. 14:50 0
Di, 17.05. 14:40 0
Di, 17.05. 14:30 0
Di, 17.05. 14:00 0
Di, 17.05. 13:30 0
Di, 17.05. 13:00 0
Di, 17.05. 12:30 0
Link zu dieser Seite / Seite empfehlen

Das Wetter in ...